sensor_id;sensor_type;location;lat;lon;timestamp;pressure;altitude;pressure_sealevel;temperature;humidity
4449;BME280;2237;51.870;6.160;2023-01-28T00:00:35;103459.31;;;6.35;0.00
4449;BME280;2237;51.870;6.160;2023-01-28T00:03:02;103448.72;;;6.22;0.00
4449;BME280;2237;51.870;6.160;2023-01-28T00:05:28;103453.84;;;6.22;0.00
4449;BME280;2237;51.870;6.160;2023-01-28T00:07:55;103449.59;;;6.23;0.00
4449;BME280;2237;51.870;6.160;2023-01-28T00:10:23;103458.44;;;6.34;0.00
4449;BME280;2237;51.870;6.160;2023-01-28T00:12:49;103464.78;;;6.47;0.00
4449;BME280;2237;51.870;6.160;2023-01-28T00:15:16;103456.38;;;6.54;0.00
4449;BME280;2237;51.870;6.160;2023-01-28T00:17:42;103465.88;;;6.56;0.00
4449;BME280;2237;51.870;6.160;2023-01-28T00:20:09;103459.97;;;6.60;0.00
4449;BME280;2237;51.870;6.160;2023-01-28T00:22:35;103468.72;;;6.67;0.00
4449;BME280;2237;51.870;6.160;2023-01-28T00:25:02;103471.16;;;6.62;0.00
4449;BME280;2237;51.870;6.160;2023-01-28T00:27:28;103473.56;;;6.55;0.00
4449;BME280;2237;51.870;6.160;2023-01-28T00:29:56;103471.00;;;6.55;0.00
4449;BME280;2237;51.870;6.160;2023-01-28T00:32:22;103462.31;;;6.51;0.00
4449;BME280;2237;51.870;6.160;2023-01-28T00:34:48;103466.63;;;6.52;0.00
4449;BME280;2237;51.870;6.160;2023-01-28T00:37:15;103466.56;;;6.49;0.00
4449;BME280;2237;51.870;6.160;2023-01-28T00:39:41;103464.81;;;6.48;0.00
4449;BME280;2237;51.870;6.160;2023-01-28T00:42:07;103475.16;;;6.50;0.00
4449;BME280;2237;51.870;6.160;2023-01-28T00:44:34;103484.75;;;6.57;0.00
4449;BME280;2237;51.870;6.160;2023-01-28T00:47:01;103477.13;;;6.60;0.00
4449;BME280;2237;51.870;6.160;2023-01-28T00:49:27;103487.38;;;6.58;0.00
4449;BME280;2237;51.870;6.160;2023-01-28T00:51:54;103483.94;;;6.59;0.00
4449;BME280;2237;51.870;6.160;2023-01-28T00:54:20;103489.00;;;6.55;0.00
4449;BME280;2237;51.870;6.160;2023-01-28T00:56:47;103491.50;;;6.53;0.00
4449;BME280;2237;51.870;6.160;2023-01-28T00:59:13;103487.97;;;6.48;0.00
4449;BME280;2237;51.870;6.160;2023-01-28T01:01:39;103478.38;;;6.41;0.00
4449;BME280;2237;51.870;6.160;2023-01-28T01:04:06;103467.91;;;6.35;0.00
4449;BME280;2237;51.870;6.160;2023-01-28T01:06:35;103487.88;;;6.45;0.00
4449;BME280;2237;51.870;6.160;2023-01-28T01:09:05;103477.72;;;6.50;0.00
4449;BME280;2237;51.870;6.160;2023-01-28T01:11:33;103476.88;;;6.51;0.00
4449;BME280;2237;51.870;6.160;2023-01-28T01:14:00;103480.41;;;6.54;0.00
4449;BME280;2237;51.870;6.160;2023-01-28T01:16:30;103476.88;;;6.51;0.00
4449;BME280;2237;51.870;6.160;2023-01-28T01:18:58;103481.19;;;6.52;0.00
4449;BME280;2237;51.870;6.160;2023-01-28T01:21:29;103478.63;;;6.52;0.00
4449;BME280;2237;51.870;6.160;2023-01-28T01:23:56;103476.88;;;6.51;0.00
4449;BME280;2237;51.870;6.160;2023-01-28T01:26:23;103481.13;;;6.49;0.00
4449;BME280;2237;51.870;6.160;2023-01-28T01:28:50;103481.84;;;6.45;0.00
4449;BME280;2237;51.870;6.160;2023-01-28T01:31:19;103488.75;;;6.46;0.00
4449;BME280;2237;51.870;6.160;2023-01-28T01:33:48;103486.91;;;6.40;0.00
4449;BME280;2237;51.870;6.160;2023-01-28T01:36:16;103492.06;;;6.42;0.00
4449;BME280;2237;51.870;6.160;2023-01-28T01:38:43;103492.06;;;6.42;0.00
4449;BME280;2237;51.870;6.160;2023-01-28T01:41:22;103494.69;;;6.43;0.00
4449;BME280;2237;51.870;6.160;2023-01-28T01:48:54;103483.03;;;6.24;0.00
4449;BME280;2237;51.870;6.160;2023-01-28T01:51:27;103484.72;;;6.24;0.00
4449;BME280;2237;51.870;6.160;2023-01-28T01:53:56;103487.28;;;6.22;0.00
4449;BME280;2237;51.870;6.160;2023-01-28T01:56:28;103488.00;;;6.18;0.00
4449;BME280;2237;51.870;6.160;2023-01-28T01:58:55;103480.31;;;6.18;0.00
4449;BME280;2237;51.870;6.160;2023-01-28T02:01:25;103481.16;;;6.17;0.00
4449;BME280;2237;51.870;6.160;2023-01-28T02:04:12;103478.66;;;6.20;0.00
4449;BME280;2237;51.870;6.160;2023-01-28T02:06:43;103490.66;;;6.20;0.00
4449;BME280;2237;51.870;6.160;2023-01-28T02:09:23;103495.91;;;6.24;0.00
4449;BME280;2237;51.870;6.160;2023-01-28T02:11:53;103491.53;;;6.22;0.00
4449;BME280;2237;51.870;6.160;2023-01-28T02:14:23;103494.81;;;6.16;0.00
4449;BME280;2237;51.870;6.160;2023-01-28T02:16:58;103492.22;;;6.15;0.00
4449;BME280;2237;51.870;6.160;2023-01-28T02:19:31;103492.16;;;6.12;0.00
4449;BME280;2237;51.870;6.160;2023-01-28T02:30:25;103487.53;;;6.00;0.00
4449;BME280;2237;51.870;6.160;2023-01-28T02:33:00;103491.00;;;6.02;0.00
4449;BME280;2237;51.870;6.160;2023-01-28T02:35:38;103498.66;;;6.01;0.00
4449;BME280;2237;51.870;6.160;2023-01-28T02:38:10;103499.53;;;6.01;0.00
4449;BME280;2237;51.870;6.160;2023-01-28T02:40:38;103501.28;;;6.02;0.00
4449;BME280;2237;51.870;6.160;2023-01-28T02:43:40;103495.38;;;6.05;0.00
4449;BME280;2237;51.870;6.160;2023-01-28T02:49:14;103497.16;;;6.07;0.00
4449;BME280;2237;51.870;6.160;2023-01-28T02:52:01;103500.75;;;6.14;0.00
4449;BME280;2237;51.870;6.160;2023-01-28T02:54:48;103494.53;;;6.06;0.00
4449;BME280;2237;51.870;6.160;2023-01-28T02:57:42;103494.53;;;6.06;0.00
4449;BME280;2237;51.870;6.160;2023-01-28T03:00:24;103496.25;;;6.07;0.00
4449;BME280;2237;51.870;6.160;2023-01-28T03:03:05;103502.97;;;6.00;0.00
4449;BME280;2237;51.870;6.160;2023-01-28T03:05:41;103500.06;;;5.90;0.00
4449;BME280;2237;51.870;6.160;2023-01-28T03:11:19;103501.44;;;5.79;0.00
4449;BME280;2237;51.870;6.160;2023-01-28T03:14:05;103497.16;;;5.79;0.00
4449;BME280;2237;51.870;6.160;2023-01-28T03:16:52;103501.63;;;5.85;0.00
4449;BME280;2237;51.870;6.160;2023-01-28T03:19:38;103500.94;;;5.90;0.00
4449;BME280;2237;51.870;6.160;2023-01-28T03:22:25;103504.41;;;5.91;0.00
4449;BME280;2237;51.870;6.160;2023-01-28T03:25:14;103501.03;;;5.93;0.00
4449;BME280;2237;51.870;6.160;2023-01-28T03:28:02;103502.13;;;6.01;0.00
4449;BME280;2237;51.870;6.160;2023-01-28T03:30:54;103498.72;;;6.02;0.00
4449;BME280;2237;51.870;6.160;2023-01-28T03:33:40;103498.66;;;6.01;0.00
4449;BME280;2237;51.870;6.160;2023-01-28T03:36:26;103490.84;;;5.96;0.00
4449;BME280;2237;51.870;6.160;2023-01-28T03:39:14;103499.28;;;5.92;0.00
4449;BME280;2237;51.870;6.160;2023-01-28T03:41:41;103492.94;;;5.81;0.00
4449;BME280;2237;51.870;6.160;2023-01-28T03:44:07;103502.31;;;5.79;0.00
4449;BME280;2237;51.870;6.160;2023-01-28T03:46:52;103501.34;;;5.76;0.00
4449;BME280;2237;51.870;6.160;2023-01-28T03:49:18;103509.84;;;5.73;0.00
4449;BME280;2237;51.870;6.160;2023-01-28T03:51:45;103502.91;;;5.70;0.00
4449;BME280;2237;51.870;6.160;2023-01-28T03:54:11;103507.75;;;5.60;0.00
4449;BME280;2237;51.870;6.160;2023-01-28T03:56:38;103512.81;;;5.58;0.00
4449;BME280;2237;51.870;6.160;2023-01-28T03:59:06;103510.84;;;5.50;0.00
4449;BME280;2237;51.870;6.160;2023-01-28T04:01:32;103516.91;;;5.52;0.00
4449;BME280;2237;51.870;6.160;2023-01-28T04:03:58;103514.34;;;5.52;0.00
4449;BME280;2237;51.870;6.160;2023-01-28T04:06:25;103523.16;;;5.60;0.00
4449;BME280;2237;51.870;6.160;2023-01-28T04:08:51;103523.97;;;5.59;0.00
4449;BME280;2237;51.870;6.160;2023-01-28T04:11:19;103518.94;;;5.62;0.00
4449;BME280;2237;51.870;6.160;2023-01-28T04:13:47;103519.63;;;5.56;0.00
4449;BME280;2237;51.870;6.160;2023-01-28T04:16:15;103524.75;;;5.56;0.00
4449;BME280;2237;51.870;6.160;2023-01-28T04:18:43;103524.50;;;5.49;0.00
4449;BME280;2237;51.870;6.160;2023-01-28T04:21:10;103524.47;;;5.47;0.00
4449;BME280;2237;51.870;6.160;2023-01-28T04:23:36;103524.28;;;5.41;0.00
4449;BME280;2237;51.870;6.160;2023-01-28T04:26:03;103521.69;;;5.40;0.00
4449;BME280;2237;51.870;6.160;2023-01-28T04:28:30;103491.31;;;5.27;0.00
4449;BME280;2237;51.870;6.160;2023-01-28T04:30:56;103520.84;;;5.41;0.00
4449;BME280;2237;51.870;6.160;2023-01-28T04:33:22;103528.16;;;5.29;0.00
4449;BME280;2237;51.870;6.160;2023-01-28T04:35:49;103516.06;;;5.25;0.00
4449;BME280;2237;51.870;6.160;2023-01-28T04:38:15;103528.03;;;5.24;0.00
4449;BME280;2237;51.870;6.160;2023-01-28T04:40:41;103532.25;;;5.22;0.00
4449;BME280;2237;51.870;6.160;2023-01-28T04:43:08;103512.41;;;5.17;0.00
4449;BME280;2237;51.870;6.160;2023-01-28T04:45:34;103528.84;;;5.23;0.00
4449;BME280;2237;51.870;6.160;2023-01-28T04:48:00;103530.38;;;5.17;0.00
4449;BME280;2237;51.870;6.160;2023-01-28T04:50:26;103521.59;;;5.10;0.00
4449;BME280;2237;51.870;6.160;2023-01-28T04:52:53;103538.81;;;5.14;0.00
4449;BME280;2237;51.870;6.160;2023-01-28T04:55:19;103537.28;;;5.19;0.00
4449;BME280;2237;51.870;6.160;2023-01-28T04:57:46;103533.09;;;5.23;0.00
4449;BME280;2237;51.870;6.160;2023-01-28T05:00:13;103539.00;;;5.20;0.00
4449;BME280;2237;51.870;6.160;2023-01-28T05:02:40;103533.94;;;5.22;0.00
4449;BME280;2237;51.870;6.160;2023-01-28T05:05:06;103545.09;;;5.22;0.00
4449;BME280;2237;51.870;6.160;2023-01-28T05:07:34;103539.00;;;5.20;0.00
4449;BME280;2237;51.870;6.160;2023-01-28T05:10:01;103546.88;;;5.25;0.00
4449;BME280;2237;51.870;6.160;2023-01-28T05:12:27;103538.91;;;5.17;0.00
4449;BME280;2237;51.870;6.160;2023-01-28T05:14:54;103542.38;;;5.18;0.00
4449;BME280;2237;51.870;6.160;2023-01-28T05:17:21;103533.69;;;5.14;0.00
4449;BME280;2237;51.870;6.160;2023-01-28T05:19:47;103532.75;;;5.10;0.00
4449;BME280;2237;51.870;6.160;2023-01-28T05:22:13;103531.91;;;5.11;0.00
4449;BME280;2237;51.870;6.160;2023-01-28T05:24:40;103540.72;;;5.20;0.00
4449;BME280;2237;51.870;6.160;2023-01-28T05:27:06;103534.97;;;5.27;0.00
4449;BME280;2237;51.870;6.160;2023-01-28T05:29:33;103534.19;;;5.29;0.00
4449;BME280;2237;51.870;6.160;2023-01-28T05:31:59;103526.34;;;5.25;0.00
4449;BME280;2237;51.870;6.160;2023-01-28T05:34:26;103527.31;;;5.28;0.00
4449;BME280;2237;51.870;6.160;2023-01-28T05:36:52;103533.31;;;5.29;0.00
4449;BME280;2237;51.870;6.160;2023-01-28T05:39:19;103530.44;;;5.20;0.00
4449;BME280;2237;51.870;6.160;2023-01-28T05:41:45;103529.41;;;5.13;0.00
4449;BME280;2237;51.870;6.160;2023-01-28T05:44:11;103537.09;;;5.13;0.00
4449;BME280;2237;51.870;6.160;2023-01-28T05:46:38;103527.50;;;5.07;0.00
4449;BME280;2237;51.870;6.160;2023-01-28T05:49:10;103526.47;;;5.02;0.00
4449;BME280;2237;51.870;6.160;2023-01-28T05:51:39;103528.22;;;5.03;0.00
4449;BME280;2237;51.870;6.160;2023-01-28T05:54:06;103526.47;;;5.02;0.00
4449;BME280;2237;51.870;6.160;2023-01-28T05:56:32;103530.88;;;5.06;0.00
4449;BME280;2237;51.870;6.160;2023-01-28T05:59:00;103530.06;;;5.07;0.00
4449;BME280;2237;51.870;6.160;2023-01-28T06:01:26;103534.16;;;5.02;0.00
4449;BME280;2237;51.870;6.160;2023-01-28T06:03:52;103541.75;;;4.99;0.00
4449;BME280;2237;51.870;6.160;2023-01-28T06:06:19;103536.50;;;4.95;0.00
4449;BME280;2237;51.870;6.160;2023-01-28T06:08:46;103533.78;;;4.90;0.00
4449;BME280;2237;51.870;6.160;2023-01-28T06:11:12;103539.94;;;4.95;0.00
4449;BME280;2237;51.870;6.160;2023-01-28T06:13:38;103554.13;;;4.84;0.00
4449;BME280;2237;51.870;6.160;2023-01-28T06:16:07;103542.22;;;4.88;0.00
4449;BME280;2237;51.870;6.160;2023-01-28T06:18:33;103540.53;;;4.88;0.00
4449;BME280;2237;51.870;6.160;2023-01-28T06:21:00;103547.63;;;4.95;0.00
4449;BME280;2237;51.870;6.160;2023-01-28T06:23:26;103547.75;;;4.98;0.00
4449;BME280;2237;51.870;6.160;2023-01-28T06:25:56;103548.72;;;5.02;0.00
4449;BME280;2237;51.870;6.160;2023-01-28T06:28:23;103547.63;;;4.95;0.00
4449;BME280;2237;51.870;6.160;2023-01-28T06:30:51;103546.78;;;4.96;0.00
4449;BME280;2237;51.870;6.160;2023-01-28T06:33:18;103549.25;;;4.93;0.00
4449;BME280;2237;51.870;6.160;2023-01-28T06:35:45;103546.63;;;4.90;0.00
4449;BME280;2237;51.870;6.160;2023-01-28T06:38:12;103539.63;;;4.86;0.00
4449;BME280;2237;51.870;6.160;2023-01-28T06:40:39;103546.44;;;4.86;0.00
4449;BME280;2237;51.870;6.160;2023-01-28T06:43:05;103554.47;;;4.95;0.00
4449;BME280;2237;51.870;6.160;2023-01-28T06:45:32;103554.97;;;4.85;0.00
4449;BME280;2237;51.870;6.160;2023-01-28T06:47:59;103546.13;;;4.77;0.00
4449;BME280;2237;51.870;6.160;2023-01-28T06:50:25;103552.00;;;4.73;0.00
4449;BME280;2237;51.870;6.160;2023-01-28T06:52:51;103544.88;;;4.64;0.00
4449;BME280;2237;51.870;6.160;2023-01-28T06:55:18;103553.59;;;4.69;0.00
4449;BME280;2237;51.870;6.160;2023-01-28T06:57:44;103564.75;;;4.71;0.00
4449;BME280;2237;51.870;6.160;2023-01-28T07:00:11;103567.44;;;4.74;0.00
4449;BME280;2237;51.870;6.160;2023-01-28T07:02:40;103567.31;;;4.71;0.00
4449;BME280;2237;51.870;6.160;2023-01-28T07:05:07;103571.00;;;4.54;0.00
4449;BME280;2237;51.870;6.160;2023-01-28T07:07:34;103561.72;;;4.57;0.00
4449;BME280;2237;51.870;6.160;2023-01-28T07:10:00;103560.53;;;4.48;0.00
4449;BME280;2237;51.870;6.160;2023-01-28T07:12:26;103572.91;;;4.60;0.00
4449;BME280;2237;51.870;6.160;2023-01-28T07:14:53;103577.34;;;4.64;0.00
4449;BME280;2237;51.870;6.160;2023-01-28T07:17:19;103582.50;;;4.65;0.00
4449;BME280;2237;51.870;6.160;2023-01-28T07:19:45;103597.19;;;4.69;0.00
4449;BME280;2237;51.870;6.160;2023-01-28T07:22:12;103590.41;;;4.71;0.00
4449;BME280;2237;51.870;6.160;2023-01-28T07:24:38;103588.72;;;4.72;0.00
4449;BME280;2237;51.870;6.160;2023-01-28T07:27:04;103596.38;;;4.46;0.00
4449;BME280;2237;51.870;6.160;2023-01-28T07:29:31;103592.22;;;4.50;0.00
4449;BME280;2237;51.870;6.160;2023-01-28T07:31:57;103588.97;;;4.54;0.00
4449;BME280;2237;51.870;6.160;2023-01-28T07:34:24;103606.31;;;4.61;0.00
4449;BME280;2237;51.870;6.160;2023-01-28T07:36:50;103607.91;;;4.57;0.00
4449;BME280;2237;51.870;6.160;2023-01-28T07:39:16;103611.56;;;4.64;0.00
4449;BME280;2237;51.870;6.160;2023-01-28T07:41:43;103615.19;;;4.71;0.00
4449;BME280;2237;51.870;6.160;2023-01-28T07:44:09;103621.25;;;4.73;0.00
4449;BME280;2237;51.870;6.160;2023-01-28T07:46:35;103626.28;;;4.70;0.00
4449;BME280;2237;51.870;6.160;2023-01-28T07:49:02;103617.75;;;4.71;0.00
4449;BME280;2237;51.870;6.160;2023-01-28T07:51:28;103634.78;;;4.69;0.00
4449;BME280;2237;51.870;6.160;2023-01-28T07:53:55;103635.69;;;4.71;0.00
4449;BME280;2237;51.870;6.160;2023-01-28T07:56:22;103629.81;;;4.73;0.00
4449;BME280;2237;51.870;6.160;2023-01-28T07:58:49;103621.31;;;4.74;0.00
4449;BME280;2237;51.870;6.160;2023-01-28T08:01:16;103622.59;;;4.87;0.00
4449;BME280;2237;51.870;6.160;2023-01-28T08:03:43;103622.84;;;4.94;0.00
4449;BME280;2237;51.870;6.160;2023-01-28T08:06:09;103620.41;;;4.97;0.00
4449;BME280;2237;51.870;6.160;2023-01-28T08:08:36;103616.28;;;5.02;0.00
4449;BME280;2237;51.870;6.160;2023-01-28T08:11:09;103631.78;;;5.05;0.00
4449;BME280;2237;51.870;6.160;2023-01-28T08:13:38;103639.75;;;5.13;0.00
4449;BME280;2237;51.870;6.160;2023-01-28T08:16:05;103640.69;;;5.15;0.00
4449;BME280;2237;51.870;6.160;2023-01-28T08:18:31;103640.81;;;5.20;0.00
4449;BME280;2237;51.870;6.160;2023-01-28T08:20:58;103636.56;;;5.20;0.00
4449;BME280;2237;51.870;6.160;2023-01-28T08:23:25;103630.66;;;5.23;0.00
4449;BME280;2237;51.870;6.160;2023-01-28T08:25:52;103643.31;;;5.17;0.00
4449;BME280;2237;51.870;6.160;2023-01-28T08:28:20;103660.50;;;5.19;0.00
4449;BME280;2237;51.870;6.160;2023-01-28T08:30:46;103655.47;;;5.22;0.00
4449;BME280;2237;51.870;6.160;2023-01-28T08:33:14;103656.97;;;5.16;0.00
4449;BME280;2237;51.870;6.160;2023-01-28T08:35:41;103651.81;;;5.16;0.00
4449;BME280;2237;51.870;6.160;2023-01-28T08:38:08;103666.69;;;5.26;0.00
4449;BME280;2237;51.870;6.160;2023-01-28T08:40:34;103669.56;;;5.35;0.00
4449;BME280;2237;51.870;6.160;2023-01-28T08:43:01;103668.09;;;5.41;0.00
4449;BME280;2237;51.870;6.160;2023-01-28T08:45:28;103663.94;;;5.45;0.00
4449;BME280;2237;51.870;6.160;2023-01-28T08:47:57;103672.84;;;5.56;0.00
4449;BME280;2237;51.870;6.160;2023-01-28T08:50:26;103670.38;;;5.59;0.00
4449;BME280;2237;51.870;6.160;2023-01-28T08:52:57;103661.78;;;5.57;0.00
4449;BME280;2237;51.870;6.160;2023-01-28T08:55:24;103660.31;;;5.65;0.00
4449;BME280;2237;51.870;6.160;2023-01-28T08:57:51;103673.56;;;5.77;0.00
4449;BME280;2237;51.870;6.160;2023-01-28T09:00:18;103678.78;;;5.80;0.00
4449;BME280;2237;51.870;6.160;2023-01-28T09:02:45;103684.84;;;5.82;0.00
4449;BME280;2237;51.870;6.160;2023-01-28T09:05:12;103681.28;;;5.79;0.00
4449;BME280;2237;51.870;6.160;2023-01-28T09:07:38;103683.72;;;5.74;0.00
4449;BME280;2237;51.870;6.160;2023-01-28T09:10:05;103677.31;;;5.61;0.00
4449;BME280;2237;51.870;6.160;2023-01-28T09:12:32;103677.44;;;5.66;0.00
4449;BME280;2237;51.870;6.160;2023-01-28T09:14:58;103683.44;;;5.65;0.00
4449;BME280;2237;51.870;6.160;2023-01-28T09:17:24;103673.19;;;5.66;0.00
4449;BME280;2237;51.870;6.160;2023-01-28T09:19:51;103673.25;;;5.68;0.00
4449;BME280;2237;51.870;6.160;2023-01-28T09:22:17;103674.94;;;5.67;0.00
4449;BME280;2237;51.870;6.160;2023-01-28T09:24:44;103681.97;;;5.73;0.00
4449;BME280;2237;51.870;6.160;2023-01-28T09:27:10;103680.50;;;5.81;0.00
4449;BME280;2237;51.870;6.160;2023-01-28T09:29:36;103680.84;;;5.90;0.00
4449;BME280;2237;51.870;6.160;2023-01-28T09:32:04;103680.94;;;5.93;0.00
4449;BME280;2237;51.870;6.160;2023-01-28T09:34:32;103678.56;;;5.99;0.00
4449;BME280;2237;51.870;6.160;2023-01-28T09:36:58;103687.25;;;6.03;0.00
4449;BME280;2237;51.870;6.160;2023-01-28T09:39:25;103697.53;;;6.03;0.00
4449;BME280;2237;51.870;6.160;2023-01-28T09:47:34;103712.31;;;5.85;0.00
4449;BME280;2237;51.870;6.160;2023-01-28T09:50:06;103704.88;;;5.92;0.00
4449;BME280;2237;51.870;6.160;2023-01-28T09:52:35;103707.34;;;5.89;0.00
4449;BME280;2237;51.870;6.160;2023-01-28T09:57:38;103710.56;;;5.84;0.00
4449;BME280;2237;51.870;6.160;2023-01-28T10:00:13;103713.13;;;5.57;0.00
4449;BME280;2237;51.870;6.160;2023-01-28T10:03:00;103725.53;;;5.70;0.00
4449;BME280;2237;51.870;6.160;2023-01-28T10:05:47;103723.88;;;5.72;0.00
4449;BME280;2237;51.870;6.160;2023-01-28T10:16:55;103728.56;;;6.09;0.00
4449;BME280;2237;51.870;6.160;2023-01-28T10:19:30;103720.78;;;6.07;0.00
4449;BME280;2237;51.870;6.160;2023-01-28T10:22:02;103718.78;;;5.97;0.00
4449;BME280;2237;51.870;6.160;2023-01-28T10:24:40;103719.38;;;5.90;0.00
4449;BME280;2237;51.870;6.160;2023-01-28T10:27:19;103724.44;;;5.87;0.00
4449;BME280;2237;51.870;6.160;2023-01-28T10:29:47;103728.75;;;5.88;0.00
4449;BME280;2237;51.870;6.160;2023-01-28T10:32:31;103725.50;;;5.94;0.00
4449;BME280;2237;51.870;6.160;2023-01-28T10:34:59;103714.13;;;5.86;0.00
4449;BME280;2237;51.870;6.160;2023-01-28T10:37:28;103722.06;;;5.93;0.00
4449;BME280;2237;51.870;6.160;2023-01-28T10:39:58;103720.59;;;6.01;0.00
4449;BME280;2237;51.870;6.160;2023-01-28T10:42:37;103729.38;;;6.08;0.00
4449;BME280;2237;51.870;6.160;2023-01-28T10:45:26;103721.28;;;5.96;0.00
4449;BME280;2237;51.870;6.160;2023-01-28T10:50:55;103707.31;;;6.43;0.00
4449;BME280;2237;51.870;6.160;2023-01-28T10:53:40;103713.25;;;6.42;0.00
4449;BME280;2237;51.870;6.160;2023-01-28T10:56:16;103701.72;;;6.57;0.00
4449;BME280;2237;51.870;6.160;2023-01-28T10:58:57;103693.94;;;6.84;0.00
4449;BME280;2237;51.870;6.160;2023-01-28T11:01:41;103691.44;;;6.87;0.00
4449;BME280;2237;51.870;6.160;2023-01-28T11:04:24;103692.75;;;7.04;0.00
4449;BME280;2237;51.870;6.160;2023-01-28T11:06:57;103678.53;;;7.18;0.00
4449;BME280;2237;51.870;6.160;2023-01-28T11:09:30;103677.66;;;7.16;0.00
4449;BME280;2237;51.870;6.160;2023-01-28T11:11:58;103673.63;;;7.27;0.00
4449;BME280;2237;51.870;6.160;2023-01-28T11:14:35;103668.25;;;7.20;0.00
4449;BME280;2237;51.870;6.160;2023-01-28T11:17:01;103662.44;;;7.25;0.00
4449;BME280;2237;51.870;6.160;2023-01-28T11:19:34;103666.38;;;7.46;0.00
4449;BME280;2237;51.870;6.160;2023-01-28T11:22:01;103651.81;;;7.48;0.00
4449;BME280;2237;51.870;6.160;2023-01-28T11:24:31;103655.56;;;7.60;0.00
4449;BME280;2237;51.870;6.160;2023-01-28T11:27:14;103657.41;;;7.66;0.00
4449;BME280;2237;51.870;6.160;2023-01-28T11:29:42;103648.91;;;7.70;0.00
4449;BME280;2237;51.870;6.160;2023-01-28T11:32:19;103654.00;;;7.32;0.00
4449;BME280;2237;51.870;6.160;2023-01-28T11:34:52;103655.22;;;7.47;0.00
4449;BME280;2237;51.870;6.160;2023-01-28T11:37:20;103647.63;;;7.51;0.00
4449;BME280;2237;51.870;6.160;2023-01-28T11:39:48;103638.69;;;7.37;0.00
4449;BME280;2237;51.870;6.160;2023-01-28T11:42:21;103626.97;;;7.15;0.00
4449;BME280;2237;51.870;6.160;2023-01-28T11:44:48;103624.47;;;6.86;0.00
4449;BME280;2237;51.870;6.160;2023-01-28T11:47:21;103595.72;;;6.69;0.00
4449;BME280;2237;51.870;6.160;2023-01-28T11:50:04;103585.97;;;6.57;0.00
4449;BME280;2237;51.870;6.160;2023-01-28T11:52:54;103569.06;;;6.36;0.00
4449;BME280;2237;51.870;6.160;2023-01-28T11:59:09;103578.44;;;6.04;0.00
4449;BME280;2237;51.870;6.160;2023-01-28T12:04:54;103567.16;;;5.99;0.00
4449;BME280;2237;51.870;6.160;2023-01-28T12:16:01;103594.66;;;6.01;0.00
4449;BME280;2237;51.870;6.160;2023-01-28T12:27:09;103610.63;;;6.51;0.00
4449;BME280;2237;51.870;6.160;2023-01-28T12:35:41;103603.09;;;6.57;0.00
4449;BME280;2237;51.870;6.160;2023-01-28T12:41:18;103604.09;;;6.62;0.00
4449;BME280;2237;51.870;6.160;2023-01-28T12:44:02;103603.47;;;6.70;0.00
4449;BME280;2237;51.870;6.160;2023-01-28T12:46:45;103589.84;;;6.74;0.00
4449;BME280;2237;51.870;6.160;2023-01-28T12:49:36;103604.75;;;6.86;0.00
4449;BME280;2237;51.870;6.160;2023-01-28T12:52:18;103599.28;;;6.74;0.00
4449;BME280;2237;51.870;6.160;2023-01-28T12:55:10;103592.78;;;6.55;0.00
4449;BME280;2237;51.870;6.160;2023-01-28T12:57:38;103599.28;;;6.43;0.00
4449;BME280;2237;51.870;6.160;2023-01-28T13:00:29;103593.66;;;6.56;0.00
4449;BME280;2237;51.870;6.160;2023-01-28T13:03:13;103598.38;;;6.72;0.00
4449;BME280;2237;51.870;6.160;2023-01-28T13:05:50;103594.28;;;6.80;0.00
4449;BME280;2237;51.870;6.160;2023-01-28T13:10:47;103597.91;;;6.88;0.00
4449;BME280;2237;51.870;6.160;2023-01-28T13:13:30;103609.47;;;7.02;0.00
4449;BME280;2237;51.870;6.160;2023-01-28T13:15:59;103603.13;;;7.22;0.00
4449;BME280;2237;51.870;6.160;2023-01-28T13:24:35;103582.56;;;7.61;0.00
4449;BME280;2237;51.870;6.160;2023-01-28T13:26:43;103593.34;;;8.23;0.00
4449;BME280;2237;51.870;6.160;2023-01-28T13:31:51;103565.13;;;15.83;0.00
4449;BME280;2237;51.870;6.160;2023-01-28T13:34:37;103562.31;;;19.26;0.00
4449;BME280;2237;51.870;6.160;2023-01-28T13:37:27;103542.00;;;20.82;0.00
4449;BME280;2237;51.870;6.160;2023-01-28T13:42:28;103528.38;;;21.96;0.00
4449;BME280;2237;51.870;6.160;2023-01-28T13:45:07;103517.78;;;23.48;0.00
4449;BME280;2237;51.870;6.160;2023-01-28T13:47:46;103504.25;;;24.30;0.00
4449;BME280;2237;51.870;6.160;2023-01-28T13:50:19;103494.13;;;24.93;0.00
4449;BME280;2237;51.870;6.160;2023-01-28T13:55:22;103473.38;;;25.99;0.00
4449;BME280;2237;51.870;6.160;2023-01-28T13:58:37;103486.41;;;26.51;0.00
4449;BME280;2237;51.870;6.160;2023-01-28T14:09:44;103517.28;;;27.71;0.00
4449;BME280;2237;51.870;6.160;2023-01-28T14:15:07;103519.16;;;26.20;0.00
4449;BME280;2237;51.870;6.160;2023-01-28T14:17:55;103517.34;;;26.97;0.00
4449;BME280;2237;51.870;6.160;2023-01-28T14:20:27;103530.84;;;27.08;0.00
4449;BME280;2237;51.870;6.160;2023-01-28T14:23:00;103524.38;;;26.53;0.00
4449;BME280;2237;51.870;6.160;2023-01-28T14:25:40;103529.91;;;26.79;0.00
4449;BME280;2237;51.870;6.160;2023-01-28T14:28:23;103537.31;;;26.27;0.00
4449;BME280;2237;51.870;6.160;2023-01-28T14:31:05;103540.19;;;26.38;0.00
4449;BME280;2237;51.870;6.160;2023-01-28T14:33:35;103551.25;;;25.50;0.00
4449;BME280;2237;51.870;6.160;2023-01-28T14:36:03;103546.94;;;25.64;0.00
4449;BME280;2237;51.870;6.160;2023-01-28T14:38:32;103548.50;;;24.64;0.00
4449;BME280;2237;51.870;6.160;2023-01-28T14:41:03;103556.81;;;23.80;0.00
4449;BME280;2237;51.870;6.160;2023-01-28T14:43:30;103551.41;;;22.59;0.00
4449;BME280;2237;51.870;6.160;2023-01-28T14:46:10;103570.34;;;20.17;0.00
4449;BME280;2237;51.870;6.160;2023-01-28T14:51:43;103574.53;;;15.08;0.00
4449;BME280;2237;51.870;6.160;2023-01-28T14:54:37;103568.31;;;13.48;0.00
4449;BME280;2237;51.870;6.160;2023-01-28T15:00:20;103556.41;;;11.41;0.00
4449;BME280;2237;51.870;6.160;2023-01-28T15:02:47;103560.34;;;10.92;0.00
4449;BME280;2237;51.870;6.160;2023-01-28T15:05:32;103549.53;;;10.45;0.00
4449;BME280;2237;51.870;6.160;2023-01-28T15:07:58;103567.16;;;10.04;0.00
4449;BME280;2237;51.870;6.160;2023-01-28T15:10:27;103568.34;;;9.67;0.00
4449;BME280;2237;51.870;6.160;2023-01-28T15:12:58;103571.03;;;9.18;0.00
4449;BME280;2237;51.870;6.160;2023-01-28T15:18:01;103573.03;;;8.83;0.00
4449;BME280;2237;51.870;6.160;2023-01-28T15:20:29;103577.19;;;8.73;0.00
4449;BME280;2237;51.870;6.160;2023-01-28T15:22:56;103574.44;;;8.64;0.00
4449;BME280;2237;51.870;6.160;2023-01-28T15:25:25;103587.22;;;8.60;0.00
4449;BME280;2237;51.870;6.160;2023-01-28T15:27:54;103572.97;;;8.33;0.00
4449;BME280;2237;51.870;6.160;2023-01-28T15:30:25;103587.78;;;8.03;0.00
4449;BME280;2237;51.870;6.160;2023-01-28T15:33:16;103585.56;;;7.81;0.00
4449;BME280;2237;51.870;6.160;2023-01-28T15:35:46;103587.84;;;7.66;0.00
4449;BME280;2237;51.870;6.160;2023-01-28T15:38:13;103596.31;;;7.60;0.00
4449;BME280;2237;51.870;6.160;2023-01-28T15:40:41;103600.22;;;7.46;0.00